createdAt,value
2022-09-10T00:01:36.381Z,83.57
2022-09-10T00:04:10.655Z,83.63
2022-09-10T00:06:38.849Z,84.03
2022-09-10T00:09:07.794Z,84.24
2022-09-10T00:11:38.570Z,83.89
2022-09-10T00:14:09.848Z,84.39
2022-09-10T00:16:37.632Z,84.26
2022-09-10T00:19:06.596Z,83.69
2022-09-10T00:21:35.645Z,82.95
2022-09-10T00:24:05.266Z,83.23
2022-09-10T00:26:38.294Z,82.65
2022-09-10T00:29:09.116Z,83.43
2022-09-10T00:31:37.581Z,83.39
2022-09-10T00:34:06.311Z,83.01
2022-09-10T00:36:39.980Z,82.55
2022-09-10T00:39:16.180Z,82.51
2022-09-10T00:41:46.819Z,82.47
2022-09-10T00:44:39.579Z,82.85
2022-09-10T00:47:24.215Z,83.42
2022-09-10T00:50:05.868Z,84.17
2022-09-10T00:52:39.436Z,83.99
2022-09-10T00:55:09.263Z,84.79
2022-09-10T00:57:37.668Z,84.62
2022-09-10T01:00:12.539Z,84.66
2022-09-10T01:02:42.407Z,84.92
2022-09-10T01:05:11.672Z,85.40
2022-09-10T01:07:39.364Z,85.57
2022-09-10T01:10:24.212Z,85.05
2022-09-10T01:13:11.989Z,86.52
2022-09-10T01:15:42.922Z,87.17
2022-09-10T01:18:19.237Z,87.23
2022-09-10T01:21:02.456Z,88.02
2022-09-10T01:24:09.399Z,87.13
2022-09-10T01:27:13.206Z,86.88
2022-09-10T01:30:15.911Z,87.21
2022-09-10T01:33:14.042Z,88.36
2022-09-10T01:35:50.856Z,88.24
2022-09-10T01:38:26.319Z,88.48
2022-09-10T01:40:56.118Z,88.27
2022-09-10T01:43:26.068Z,87.98
2022-09-10T01:46:08.387Z,88.94
2022-09-10T01:49:02.334Z,88.65
2022-09-10T01:52:06.403Z,89.43
2022-09-10T01:55:06.132Z,89.23
2022-09-10T01:57:55.407Z,90.83
2022-09-10T02:00:27.835Z,90.87
2022-09-10T02:03:16.267Z,89.69
2022-09-10T02:05:50.960Z,90.12
2022-09-10T02:08:26.557Z,89.37
2022-09-10T02:11:03.984Z,90.64
2022-09-10T02:13:36.512Z,90.92
2022-09-10T02:16:34.725Z,91.89
2022-09-10T02:19:03.972Z,92.24
2022-09-10T02:21:32.896Z,91.94
2022-09-10T02:24:12.742Z,92.17
2022-09-10T02:26:44.487Z,93.24
2022-09-10T02:29:15.892Z,93.57
2022-09-10T02:31:45.006Z,93.13
2022-09-10T02:34:20.153Z,92.74
2022-09-10T02:36:49.551Z,92.68
2022-09-10T02:39:17.183Z,92.53
2022-09-10T02:41:48.079Z,93.30
2022-09-10T02:44:16.233Z,92.98
2022-09-10T02:46:44.261Z,92.66
2022-09-10T02:49:11.890Z,93.14
2022-09-10T02:51:42.384Z,94.09
2022-09-10T02:54:10.076Z,92.96
2022-09-10T02:56:37.544Z,92.20
2022-09-10T02:59:06.428Z,92.42
2022-09-10T03:01:34.852Z,91.78
2022-09-10T03:04:05.817Z,91.34
2022-09-10T03:06:33.352Z,91.96
2022-09-10T03:09:02.142Z,91.83
2022-09-10T03:11:29.786Z,91.61
2022-09-10T03:13:59.121Z,92.54
2022-09-10T03:16:27.372Z,93.26
2022-09-10T03:18:56.045Z,93.92
2022-09-10T03:21:27.765Z,92.77
2022-09-10T03:24:01.242Z,92.92
2022-09-10T03:26:30.803Z,93.53
2022-09-10T03:28:58.595Z,93.00
2022-09-10T03:31:31.206Z,91.77
2022-09-10T03:33:59.774Z,91.52
2022-09-10T03:36:31.290Z,91.72
2022-09-10T03:38:59.987Z,92.00
2022-09-10T03:41:31.750Z,90.20
2022-09-10T03:43:59.805Z,89.90
2022-09-10T03:46:28.079Z,88.01
2022-09-10T03:48:59.633Z,88.20
2022-09-10T03:51:28.940Z,88.66
2022-09-10T03:53:59.746Z,89.08
2022-09-10T03:56:30.268Z,88.79
2022-09-10T03:58:57.833Z,90.22
2022-09-10T04:01:28.301Z,90.81
2022-09-10T04:03:57.128Z,90.26
2022-09-10T04:06:27.036Z,90.11
2022-09-10T04:08:56.018Z,89.37
2022-09-10T04:11:27.642Z,89.68
2022-09-10T04:13:57.614Z,89.92
2022-09-10T04:16:27.465Z,89.46
2022-09-10T04:18:55.465Z,88.97
2022-09-10T04:21:24.426Z,88.13
2022-09-10T04:24:00.843Z,88.20
2022-09-10T04:26:29.425Z,89.45
2022-09-10T04:28:57.094Z,89.14
2022-09-10T04:31:24.689Z,88.57
2022-09-10T04:33:56.331Z,88.44
2022-09-10T04:36:27.009Z,89.51
2022-09-10T04:38:54.774Z,89.06
2022-09-10T04:41:22.227Z,87.65
2022-09-10T04:43:50.030Z,86.71
2022-09-10T04:46:17.754Z,86.79
2022-09-10T04:48:46.040Z,86.59
2022-09-10T04:51:18.095Z,87.75
2022-09-10T04:53:48.332Z,87.75
2022-09-10T04:56:16.869Z,88.40
2022-09-10T04:58:44.846Z,87.63
2022-09-10T05:01:14.122Z,88.01
2022-09-10T05:03:43.758Z,87.40
2022-09-10T05:06:12.246Z,86.58
2022-09-10T05:08:39.918Z,85.63
2022-09-10T05:11:08.376Z,84.72
2022-09-10T05:13:35.935Z,84.52
2022-09-10T05:16:04.085Z,84.84
2022-09-10T05:18:33.991Z,85.02
2022-09-10T05:21:01.564Z,84.71
2022-09-10T05:23:29.660Z,84.87
2022-09-10T05:26:00.051Z,84.85
2022-09-10T05:28:28.453Z,84.40
2022-09-10T05:30:55.926Z,82.79
2022-09-10T05:33:26.649Z,81.67
2022-09-10T05:35:54.108Z,81.25
2022-09-10T05:38:24.884Z,79.43
2022-09-10T05:40:52.861Z,79.48
2022-09-10T05:43:21.409Z,78.79
2022-09-10T05:45:52.342Z,78.56
2022-09-10T05:48:21.337Z,76.98
2022-09-10T05:50:49.614Z,75.95
2022-09-10T05:53:17.435Z,77.35
2022-09-10T05:55:48.916Z,76.04
2022-09-10T05:58:17.219Z,75.62
2022-09-10T06:00:44.903Z,75.13
2022-09-10T06:03:13.829Z,75.34
2022-09-10T06:05:55.753Z,75.38
2022-09-10T06:08:30.510Z,75.23
2022-09-10T06:11:02.640Z,74.76
2022-09-10T06:13:38.074Z,73.52
2022-09-10T06:16:07.415Z,74.03
2022-09-10T06:18:35.137Z,74.74
2022-09-10T06:21:18.769Z,74.38
2022-09-10T06:23:55.230Z,76.45
2022-09-10T06:26:25.473Z,74.48
2022-09-10T06:28:56.925Z,75.43
2022-09-10T06:31:25.201Z,76.09
2022-09-10T06:33:54.155Z,78.10
2022-09-10T06:36:24.789Z,77.49
2022-09-10T06:38:57.782Z,79.07
2022-09-10T06:41:27.033Z,79.10
2022-09-10T06:44:14.765Z,79.25
2022-09-10T06:49:36.473Z,79.59
2022-09-10T06:52:05.401Z,79.88
2022-09-10T06:54:33.710Z,78.32
2022-09-10T06:57:13.845Z,77.99
2022-09-10T06:59:41.863Z,78.32
2022-09-10T07:02:09.925Z,77.99
2022-09-10T07:04:37.857Z,75.96
2022-09-10T07:07:06.022Z,75.80
2022-09-10T07:09:33.602Z,75.49
2022-09-10T07:12:04.930Z,72.59
2022-09-10T07:14:36.074Z,72.08
2022-09-10T07:17:07.104Z,71.53
2022-09-10T07:19:37.226Z,71.95
2022-09-10T07:22:09.806Z,74.58
2022-09-10T07:24:39.506Z,75.36
2022-09-10T07:27:11.175Z,73.69
2022-09-10T07:29:41.773Z,74.52
2022-09-10T07:32:13.886Z,73.41
2022-09-10T07:34:43.163Z,74.52
2022-09-10T07:37:15.596Z,74.52
2022-09-10T07:39:43.386Z,72.77
2022-09-10T07:42:11.734Z,74.89
2022-09-10T07:44:43.006Z,73.96
2022-09-10T07:47:10.587Z,73.12
2022-09-10T07:49:39.011Z,74.18
2022-09-10T07:52:08.029Z,74.37
2022-09-10T07:54:46.402Z,74.22
2022-09-10T07:57:13.993Z,72.27
2022-09-10T07:59:41.870Z,71.82
2022-09-10T08:02:16.061Z,71.44
2022-09-10T08:04:49.614Z,72.09
2022-09-10T08:07:18.328Z,69.95
2022-09-10T08:09:46.604Z,67.75
2022-09-10T08:12:17.779Z,66.63
2022-09-10T08:14:47.617Z,65.87
2022-09-10T08:17:15.985Z,64.94
2022-09-10T08:19:45.769Z,64.21
2022-09-10T08:22:14.294Z,60.96
2022-09-10T08:24:53.399Z,61.91
2022-09-10T08:27:23.725Z,60.79
2022-09-10T08:29:54.808Z,60.05
2022-09-10T08:32:23.243Z,59.76
2022-09-10T08:34:56.099Z,58.67
2022-09-10T08:37:26.250Z,58.14
2022-09-10T08:39:55.065Z,59.26
2022-09-10T08:42:39.236Z,56.65
2022-09-10T08:45:14.962Z,55.64
2022-09-10T08:47:53.517Z,56.51
2022-09-10T08:50:29.988Z,55.31
2022-09-10T08:53:09.567Z,55.37
2022-09-10T08:55:44.985Z,54.48
2022-09-10T08:58:23.479Z,54.86
2022-09-10T09:00:58.527Z,53.32
2022-09-10T09:03:33.650Z,52.78
2022-09-10T09:06:05.695Z,52.35
2022-09-10T09:08:48.623Z,54.62
2022-09-10T09:11:50.718Z,53.19
2022-09-10T09:15:10.368Z,52.48
2022-09-10T09:18:00.429Z,55.88
2022-09-10T09:20:43.740Z,55.07
2022-09-10T09:23:30.531Z,55.51
2022-09-10T09:26:36.347Z,53.24
2022-09-10T09:29:18.321Z,53.66
2022-09-10T09:31:52.743Z,54.97
2022-09-10T09:34:33.887Z,53.39
2022-09-10T09:37:10.339Z,51.89
2022-09-10T09:39:43.727Z,53.20
2022-09-10T09:42:59.481Z,50.51
2022-09-10T09:45:44.881Z,50.03
2022-09-10T09:48:21.106Z,49.70
2022-09-10T09:50:54.491Z,50.12
2022-09-10T09:53:28.826Z,50.41
2022-09-10T09:56:01.286Z,49.21
2022-09-10T09:58:35.175Z,48.97
2022-09-10T10:01:05.947Z,47.84
2022-09-10T10:03:54.592Z,48.37
2022-09-10T10:06:34.897Z,48.03
2022-09-10T10:09:20.293Z,47.42
2022-09-10T10:11:54.723Z,47.74
2022-09-10T10:14:25.761Z,46.95
2022-09-10T10:17:00.456Z,47.20
2022-09-10T10:19:40.320Z,47.42
2022-09-10T10:22:19.274Z,47.03
2022-09-10T10:24:50.124Z,45.98
2022-09-10T10:27:32.955Z,45.05
2022-09-10T10:30:25.388Z,45.62
2022-09-10T10:33:03.115Z,43.47
2022-09-10T10:36:18.567Z,42.94
2022-09-10T10:39:36.780Z,41.55
2022-09-10T10:42:34.365Z,42.05
2022-09-10T10:45:42.850Z,42.47
2022-09-10T10:48:35.405Z,42.85
2022-09-10T10:51:21.957Z,41.75
2022-09-10T10:54:12.892Z,41.08
2022-09-10T10:57:01.504Z,40.38
2022-09-10T10:59:44.805Z,39.05
2022-09-10T11:02:16.340Z,40.58
2022-09-10T11:04:53.776Z,39.39
2022-09-10T11:07:32.998Z,38.03
2022-09-10T11:10:34.654Z,38.21
2022-09-10T11:13:11.800Z,37.77
2022-09-10T11:16:07.899Z,39.21
2022-09-10T11:18:51.122Z,38.42
2022-09-10T11:21:44.848Z,37.85
2022-09-10T11:24:27.104Z,38.31
2022-09-10T11:27:14.446Z,38.26
2022-09-10T11:29:57.850Z,37.60
2022-09-10T11:32:57.168Z,37.34
2022-09-10T11:36:00.142Z,37.20
2022-09-10T11:39:13.564Z,36.19
2022-09-10T11:41:43.637Z,36.30
2022-09-10T11:44:22.817Z,36.78
2022-09-10T11:47:16.841Z,35.74
2022-09-10T11:50:00.844Z,36.60
2022-09-10T11:52:31.463Z,36.02
2022-09-10T11:54:59.864Z,36.61
2022-09-10T11:57:59.343Z,35.97
2022-09-10T12:00:31.285Z,34.77
2022-09-10T12:03:59.298Z,36.50
2022-09-10T12:07:21.851Z,36.12
2022-09-10T12:10:05.843Z,36.26
2022-09-10T12:12:50.346Z,37.70
2022-09-10T12:15:26.655Z,39.35
2022-09-10T12:18:08.236Z,38.99
2022-09-10T12:20:50.269Z,39.67
2022-09-10T12:23:26.345Z,40.06
2022-09-10T12:26:29.361Z,40.81
2022-09-10T12:29:01.547Z,40.65
2022-09-10T12:32:25.107Z,41.44
2022-09-10T12:39:00.226Z,39.18
2022-09-10T12:44:36.246Z,37.33
2022-09-10T12:47:22.500Z,36.71
2022-09-10T12:49:57.873Z,38.37
2022-09-10T12:52:51.111Z,38.45
2022-09-10T12:56:02.300Z,39.18
2022-09-10T12:59:10.841Z,38.65
2022-09-10T13:01:48.023Z,37.85
2022-09-10T13:04:28.891Z,37.74
2022-09-10T13:07:23.875Z,37.79
2022-09-10T13:10:04.886Z,38.19
2022-09-10T13:12:36.273Z,38.33
2022-09-10T13:15:06.136Z,39.82
2022-09-10T13:17:48.449Z,39.52
2022-09-10T13:20:22.510Z,40.11
2022-09-10T13:23:04.364Z,41.40
2022-09-10T13:25:43.254Z,42.42
2022-09-10T13:28:33.093Z,42.42
2022-09-10T13:31:20.027Z,42.09
2022-09-10T13:33:52.049Z,42.42
2022-09-10T13:36:58.381Z,42.47
2022-09-10T13:39:29.033Z,41.19
2022-09-10T13:42:35.494Z,40.00
2022-09-10T13:45:41.589Z,38.81
2022-09-10T13:48:24.525Z,38.81
2022-09-10T13:51:11.993Z,38.63
2022-09-10T13:53:47.157Z,36.84
2022-09-10T13:56:23.818Z,38.50
2022-09-10T13:59:01.220Z,37.17
2022-09-10T14:01:55.545Z,37.35
2022-09-10T14:04:44.250Z,35.61
2022-09-10T14:07:26.895Z,35.29
2022-09-10T14:10:01.002Z,34.64
2022-09-10T14:12:32.155Z,35.08
2022-09-10T14:15:05.280Z,35.90
2022-09-10T14:17:43.427Z,35.98
2022-09-10T14:20:33.034Z,36.22
2022-09-10T14:23:18.222Z,34.42
2022-09-10T14:25:46.840Z,33.34
2022-09-10T14:28:27.649Z,33.65
2022-09-10T14:31:23.237Z,32.45
2022-09-10T14:33:51.426Z,33.63
2022-09-10T14:36:36.100Z,33.11
2022-09-10T14:39:25.157Z,32.10
2022-09-10T14:42:35.144Z,30.63
2022-09-10T14:45:04.068Z,32.13
2022-09-10T14:47:37.238Z,31.33
2022-09-10T14:50:28.070Z,32.38
2022-09-10T14:52:56.666Z,31.65
2022-09-10T14:55:27.389Z,32.23
2022-09-10T14:57:56.800Z,33.46
2022-09-10T15:00:26.700Z,35.78
2022-09-10T15:02:57.524Z,37.51
2022-09-10T15:05:25.362Z,38.31
2022-09-10T15:07:53.021Z,39.47
2022-09-10T15:10:20.827Z,39.63
2022-09-10T15:12:52.290Z,40.21
2022-09-10T15:15:22.790Z,41.75
2022-09-10T15:17:51.329Z,42.00
2022-09-10T15:20:19.141Z,43.20
2022-09-10T15:22:50.890Z,42.68
2022-09-10T15:25:56.406Z,43.42
2022-09-10T15:28:24.237Z,42.34
2022-09-10T15:30:52.143Z,42.82
2022-09-10T15:33:20.133Z,42.75
2022-09-10T15:35:50.511Z,43.02
2022-09-10T15:38:21.647Z,43.67
2022-09-10T15:40:51.121Z,43.83
2022-09-10T15:43:20.229Z,44.22
2022-09-10T15:45:49.117Z,44.07
2022-09-10T15:48:16.779Z,44.10
2022-09-10T15:50:45.068Z,44.30
2022-09-10T15:53:12.744Z,44.93
2022-09-10T15:55:40.477Z,44.44
2022-09-10T15:58:08.165Z,44.75
2022-09-10T16:00:37.527Z,44.85
2022-09-10T16:03:05.452Z,44.85
2022-09-10T16:05:38.969Z,45.08
2022-09-10T16:08:07.094Z,46.18
2022-09-10T16:10:38.358Z,45.65
2022-09-10T16:13:06.593Z,45.35
2022-09-10T16:15:36.245Z,45.71
2022-09-10T16:18:04.107Z,46.25
2022-09-10T16:20:32.316Z,46.25
2022-09-10T16:23:24.885Z,47.21
2022-09-10T16:25:57.369Z,46.89
2022-09-10T16:28:26.101Z,47.05
2022-09-10T16:30:53.906Z,47.43
2022-09-10T16:33:21.540Z,47.06
2022-09-10T16:35:49.238Z,48.49
2022-09-10T16:38:16.851Z,48.82
2022-09-10T16:40:48.447Z,49.04
2022-09-10T16:43:16.180Z,50.46
2022-09-10T16:45:53.405Z,51.92
2022-09-10T16:48:21.123Z,53.08
2022-09-10T16:50:48.809Z,55.36
2022-09-10T16:53:19.422Z,55.93
2022-09-10T16:55:47.572Z,56.58
2022-09-10T16:58:15.270Z,58.32
2022-09-10T17:00:45.209Z,59.20
2022-09-10T17:03:13.367Z,59.43
2022-09-10T17:05:41.631Z,60.95
2022-09-10T17:08:09.310Z,61.86
2022-09-10T17:10:36.987Z,62.23
2022-09-10T17:13:06.840Z,62.28
2022-09-10T17:15:36.275Z,62.93
2022-09-10T17:18:09.180Z,63.73
2022-09-10T17:20:38.182Z,64.22
2022-09-10T17:23:07.047Z,64.72
2022-09-10T17:25:37.533Z,65.16
2022-09-10T17:28:05.753Z,66.64
2022-09-10T17:30:33.536Z,67.32
2022-09-10T17:33:01.208Z,67.81
2022-09-10T17:35:29.355Z,68.14
2022-09-10T17:37:57.042Z,67.95
2022-09-10T17:40:26.623Z,68.16
2022-09-10T17:42:55.886Z,69.21
2022-09-10T17:45:23.612Z,70.00
2022-09-10T17:47:53.539Z,70.18
2022-09-10T17:50:21.636Z,70.44
2022-09-10T17:52:51.470Z,71.19
2022-09-10T17:55:19.161Z,71.29
2022-09-10T17:57:48.815Z,71.40
2022-09-10T18:00:16.833Z,71.71
2022-09-10T18:02:45.767Z,72.56
2022-09-10T18:05:13.723Z,71.58
2022-09-10T18:07:46.455Z,72.95
2022-09-10T18:10:16.442Z,73.91
2022-09-10T18:12:44.308Z,74.03
2022-09-10T18:15:12.287Z,74.89
2022-09-10T18:17:43.320Z,75.60
2022-09-10T18:20:14.422Z,75.18
2022-09-10T18:22:45.087Z,76.53
2022-09-10T18:25:19.011Z,78.35
2022-09-10T18:27:47.685Z,78.64
2022-09-10T18:30:16.269Z,78.59
2022-09-10T18:32:44.368Z,80.06
2022-09-10T18:35:13.053Z,81.43
2022-09-10T18:37:40.864Z,81.78
2022-09-10T18:40:09.552Z,81.47
2022-09-10T18:42:37.838Z,81.56
2022-09-10T18:45:06.436Z,81.65
2022-09-10T18:47:44.635Z,83.16
2022-09-10T18:50:14.600Z,82.72
2022-09-10T18:52:44.239Z,81.23
2022-09-10T18:55:18.665Z,79.81
2022-09-10T18:57:46.630Z,80.40
2022-09-10T19:00:16.733Z,81.28
2022-09-10T19:02:44.897Z,81.97
2022-09-10T19:05:15.648Z,82.66
2022-09-10T19:07:43.463Z,82.62
2022-09-10T19:10:11.262Z,82.22
2022-09-10T19:12:40.101Z,83.53
2022-09-10T19:15:10.077Z,83.95
2022-09-10T19:17:43.816Z,83.73
2022-09-10T19:20:11.516Z,84.47
2022-09-10T19:22:39.577Z,84.54
2022-09-10T19:25:12.126Z,83.74
2022-09-10T19:27:41.254Z,83.96
2022-09-10T19:30:09.606Z,83.80
2022-09-10T19:32:37.239Z,84.67
2022-09-10T19:35:05.115Z,84.48
2022-09-10T19:37:32.672Z,83.98
2022-09-10T19:40:01.826Z,84.90
2022-09-10T19:42:31.805Z,85.51
2022-09-10T19:45:01.131Z,85.75
2022-09-10T19:47:33.163Z,86.12
2022-09-10T19:50:02.333Z,85.84
2022-09-10T19:52:34.739Z,85.61
2022-09-10T19:55:03.771Z,85.42
2022-09-10T19:57:31.396Z,85.64
2022-09-10T19:59:58.857Z,86.64
2022-09-10T20:02:26.917Z,86.21
2022-09-10T20:04:54.392Z,86.12
2022-09-10T20:07:41.836Z,87.40
2022-09-10T20:10:10.178Z,87.13
2022-09-10T20:12:37.814Z,87.29
2022-09-10T20:15:07.522Z,88.31
2022-09-10T20:17:36.609Z,88.06
2022-09-10T20:20:05.969Z,88.68
2022-09-10T20:22:38.668Z,88.20
2022-09-10T20:25:08.216Z,84.52
2022-09-10T20:27:36.990Z,86.88
2022-09-10T20:30:06.043Z,88.63
2022-09-10T20:32:34.429Z,87.76
2022-09-10T20:35:03.744Z,86.89
2022-09-10T20:37:31.297Z,88.01
2022-09-10T20:39:59.259Z,87.96
2022-09-10T20:42:27.934Z,87.18
2022-09-10T20:44:55.670Z,87.25
2022-09-10T20:47:30.891Z,87.31
2022-09-10T20:49:59.102Z,86.99
2022-09-10T20:52:27.453Z,89.06
2022-09-10T20:54:55.600Z,90.19
2022-09-10T20:57:28.535Z,91.16
2022-09-10T20:59:56.159Z,90.92
2022-09-10T21:02:26.206Z,90.45
2022-09-10T21:04:56.154Z,91.40
2022-09-10T21:07:23.773Z,90.71
2022-09-10T21:09:51.346Z,89.88
2022-09-10T21:12:19.096Z,87.59
2022-09-10T21:14:47.031Z,89.31
2022-09-10T21:17:15.126Z,88.98
2022-09-10T21:19:43.301Z,91.54
2022-09-10T21:22:10.853Z,92.94
2022-09-10T21:24:39.749Z,95.06
2022-09-10T21:27:07.214Z,95.79
2022-09-10T21:29:34.715Z,97.21
2022-09-10T21:32:03.392Z,95.98
2022-09-10T21:34:34.960Z,96.04
2022-09-10T21:37:02.534Z,97.73
2022-09-10T21:39:29.943Z,97.28
2022-09-10T21:41:57.490Z,97.61
2022-09-10T21:44:25.193Z,98.86
2022-09-10T21:46:53.648Z,98.89
2022-09-10T21:49:21.354Z,98.48
2022-09-10T21:51:48.985Z,98.97
2022-09-10T21:54:22.198Z,98.86
2022-09-10T21:56:51.925Z,99.84
2022-09-10T21:59:21.302Z,100.00
2022-09-10T22:01:49.596Z,100.00
2022-09-10T22:04:22.806Z,100.00
2022-09-10T22:06:51.940Z,100.00
2022-09-10T22:09:20.679Z,100.00
2022-09-10T22:11:54.263Z,100.00
2022-09-10T22:14:24.939Z,100.00
2022-09-10T22:16:53.698Z,100.00
2022-09-10T22:19:24.822Z,100.00
2022-09-10T22:21:56.902Z,100.00
2022-09-10T22:24:24.508Z,100.00
2022-09-10T22:26:51.910Z,100.00
2022-09-10T22:29:21.148Z,100.00
2022-09-10T22:31:49.730Z,100.00
2022-09-10T22:34:18.620Z,100.00
2022-09-10T22:36:48.475Z,100.00
2022-09-10T22:39:21.401Z,100.00
2022-09-10T22:41:51.262Z,100.00
2022-09-10T22:44:20.103Z,100.00
2022-09-10T22:46:48.263Z,100.00
2022-09-10T22:49:16.692Z,100.00
2022-09-10T22:51:44.654Z,100.00
2022-09-10T22:54:12.296Z,100.00
2022-09-10T22:56:42.018Z,100.00
2022-09-10T22:59:15.912Z,100.00
2022-09-10T23:01:47.462Z,100.00
2022-09-10T23:04:17.926Z,100.00
2022-09-10T23:06:45.493Z,100.00
2022-09-10T23:09:16.222Z,100.00
2022-09-10T23:11:45.137Z,100.00
2022-09-10T23:14:19.079Z,100.00
2022-09-10T23:16:49.805Z,100.00
2022-09-10T23:19:23.996Z,100.00
2022-09-10T23:21:54.607Z,100.00
2022-09-10T23:24:26.550Z,100.00
2022-09-10T23:26:54.780Z,100.00
2022-09-10T23:29:23.378Z,100.00
2022-09-10T23:31:54.043Z,100.00
2022-09-10T23:34:22.395Z,100.00
2022-09-10T23:36:51.642Z,100.00
2022-09-10T23:39:24.623Z,100.00
2022-09-10T23:41:55.196Z,100.00
2022-09-10T23:44:26.645Z,100.00
2022-09-10T23:46:55.569Z,100.00
2022-09-10T23:49:24.125Z,100.00
2022-09-10T23:51:52.211Z,100.00
2022-09-10T23:54:19.696Z,100.00
2022-09-10T23:56:47.215Z,100.00
2022-09-10T23:59:15.447Z,100.00
